createdAt,value
2022-09-23T00:01:07.929Z,0.43
2022-09-23T00:03:35.287Z,0.28
2022-09-23T00:06:03.971Z,0.17
2022-09-23T00:08:31.013Z,0.30
2022-09-23T00:11:04.440Z,0.30
2022-09-23T00:13:31.633Z,0.50
2022-09-23T00:16:01.712Z,0.28
2022-09-23T00:18:28.704Z,0.32
2022-09-23T00:20:55.752Z,0.20
2022-09-23T00:23:22.707Z,0.38
2022-09-23T00:25:59.827Z,0.20
2022-09-23T00:28:26.882Z,0.30
2022-09-23T00:30:54.098Z,0.20
2022-09-23T00:33:21.124Z,0.40
2022-09-23T00:35:48.025Z,0.20
2022-09-23T00:38:15.131Z,0.40
2022-09-23T00:40:46.220Z,0.20
2022-09-23T00:43:14.018Z,0.28
2022-09-23T00:45:42.252Z,0.40
2022-09-23T00:48:10.225Z,0.40
2022-09-23T00:50:38.589Z,0.30
2022-09-23T00:53:10.841Z,0.35
2022-09-23T00:55:44.287Z,0.20
2022-09-23T00:58:12.588Z,0.30
2022-09-23T01:00:39.618Z,0.40
2022-09-23T01:03:06.818Z,0.30
2022-09-23T01:05:34.112Z,0.30
2022-09-23T01:08:01.394Z,0.40
2022-09-23T01:10:31.582Z,0.22
2022-09-23T01:13:11.964Z,0.28
2022-09-23T01:15:44.705Z,0.20
2022-09-23T01:18:33.711Z,0.40
2022-09-23T01:21:03.416Z,0.20
2022-09-23T01:23:55.214Z,0.63
2022-09-23T01:26:28.481Z,0.40
2022-09-23T01:29:21.646Z,0.20
2022-09-23T01:31:57.157Z,0.80
2022-09-23T01:34:32.481Z,0.38
2022-09-23T01:37:06.576Z,0.20
2022-09-23T01:39:38.740Z,0.50
2022-09-23T01:42:13.473Z,0.75
2022-09-23T01:44:48.709Z,0.38
2022-09-23T01:47:18.588Z,0.30
2022-09-23T01:49:51.972Z,0.68
2022-09-23T01:52:41.502Z,0.32
2022-09-23T01:55:15.350Z,0.52
2022-09-23T01:57:48.883Z,0.35
2022-09-23T02:00:17.241Z,0.50
2022-09-23T02:03:06.963Z,0.60
2022-09-23T02:05:37.645Z,0.20
2022-09-23T02:08:21.208Z,0.90
2022-09-23T02:10:52.236Z,0.40
2022-09-23T02:13:48.261Z,0.68
2022-09-23T02:16:30.366Z,0.57
2022-09-23T02:19:08.639Z,0.43
2022-09-23T02:21:47.409Z,0.43
2022-09-23T02:24:22.555Z,0.60
2022-09-23T02:26:59.679Z,0.60
2022-09-23T02:29:34.637Z,0.40
2022-09-23T02:32:28.867Z,0.50
2022-09-23T02:35:08.554Z,0.55
2022-09-23T02:37:57.781Z,0.47
2022-09-23T02:40:35.026Z,0.47
2022-09-23T02:43:15.047Z,0.80
2022-09-23T02:45:45.202Z,0.63
2022-09-23T02:48:29.099Z,0.40
2022-09-23T02:51:08.134Z,0.40
2022-09-23T02:53:35.755Z,0.50
2022-09-23T02:56:12.859Z,0.52
2022-09-23T02:58:42.953Z,0.40
2022-09-23T03:01:34.830Z,0.60
2022-09-23T03:04:14.924Z,0.52
2022-09-23T03:07:07.104Z,0.40
2022-09-23T03:09:53.472Z,0.73
2022-09-23T03:12:36.180Z,0.30
2022-09-23T03:15:37.379Z,0.30
2022-09-23T03:18:18.201Z,0.20
2022-09-23T03:20:50.221Z,0.30
2022-09-23T03:23:26.672Z,0.60
2022-09-23T03:26:00.125Z,0.57
2022-09-23T03:28:27.345Z,0.57
2022-09-23T03:30:57.647Z,0.52
2022-09-23T03:33:28.542Z,0.32
2022-09-23T03:36:27.758Z,0.30
2022-09-23T03:38:59.321Z,0.68
2022-09-23T03:41:43.378Z,0.30
2022-09-23T03:44:10.727Z,0.20
2022-09-23T03:46:38.324Z,0.45
2022-09-23T03:49:18.711Z,0.40
2022-09-23T03:51:45.820Z,0.30
2022-09-23T03:54:12.830Z,0.43
2022-09-23T03:56:39.822Z,1.52
2022-09-23T03:59:07.204Z,0.30
2022-09-23T04:01:34.607Z,0.30
2022-09-23T04:04:02.189Z,0.22
2022-09-23T04:06:37.095Z,0.40
2022-09-23T04:09:07.444Z,0.35
2022-09-23T04:11:35.365Z,0.20
2022-09-23T04:14:02.804Z,0.43
2022-09-23T04:16:29.970Z,0.35
2022-09-23T04:18:57.190Z,0.73
2022-09-23T04:21:24.546Z,0.70
2022-09-23T04:23:54.652Z,0.60
2022-09-23T04:26:22.090Z,0.30
2022-09-23T04:28:49.244Z,0.25
2022-09-23T04:31:16.408Z,0.60
2022-09-23T04:33:46.017Z,0.40
2022-09-23T04:36:13.487Z,0.20
2022-09-23T04:38:44.611Z,0.47
2022-09-23T04:41:12.076Z,0.35
2022-09-23T04:43:39.212Z,0.30
2022-09-23T04:46:07.363Z,0.30
2022-09-23T04:48:36.291Z,0.40
2022-09-23T04:51:07.616Z,0.28
2022-09-23T04:53:39.083Z,0.38
2022-09-23T04:56:22.353Z,0.65
2022-09-23T04:58:50.197Z,0.20
2022-09-23T05:01:25.373Z,0.47
2022-09-23T05:03:53.612Z,0.40
2022-09-23T05:06:22.943Z,0.40
2022-09-23T05:08:52.091Z,0.30
2022-09-23T05:11:23.519Z,0.40
2022-09-23T05:13:52.510Z,0.50
2022-09-23T05:16:20.411Z,0.30
2022-09-23T05:18:51.269Z,0.43
2022-09-23T05:21:22.785Z,0.75
2022-09-23T05:23:56.340Z,0.80
2022-09-23T05:26:27.429Z,0.77
2022-09-23T05:28:54.830Z,0.63
2022-09-23T05:31:24.232Z,0.77
2022-09-23T05:33:53.262Z,0.57
2022-09-23T05:36:21.342Z,0.38
2022-09-23T05:38:50.109Z,0.50
2022-09-23T05:41:18.558Z,0.22
2022-09-23T05:43:45.934Z,0.38
2022-09-23T05:46:21.260Z,0.60
2022-09-23T05:49:20.499Z,0.40
2022-09-23T05:51:47.476Z,0.63
2022-09-23T05:54:14.502Z,0.50
2022-09-23T05:56:41.601Z,0.47
2022-09-23T05:59:08.669Z,0.40
2022-09-23T06:01:36.726Z,0.63
2022-09-23T06:04:08.393Z,0.30
2022-09-23T06:06:38.877Z,0.32
2022-09-23T06:09:06.778Z,0.68
2022-09-23T06:11:37.479Z,0.50
2022-09-23T06:14:05.088Z,0.98
2022-09-23T06:16:33.995Z,0.63
2022-09-23T06:19:06.264Z,0.55
2022-09-23T06:21:40.521Z,1.10
2022-09-23T06:24:08.069Z,0.90
2022-09-23T06:26:39.031Z,1.67
2022-09-23T06:29:11.723Z,1.42
2022-09-23T06:31:57.576Z,1.38
2022-09-23T06:34:44.257Z,1.40
2022-09-23T06:37:27.802Z,1.30
2022-09-23T06:40:02.992Z,1.33
2022-09-23T06:42:41.762Z,1.08
2022-09-23T06:45:28.373Z,1.20
2022-09-23T06:47:59.132Z,1.75
2022-09-23T06:50:41.522Z,1.05
2022-09-23T06:53:09.263Z,0.90
2022-09-23T06:55:46.455Z,1.05
2022-09-23T06:58:19.314Z,1.20
2022-09-23T07:01:00.915Z,1.77
2022-09-23T07:03:35.015Z,1.10
2022-09-23T07:06:10.599Z,1.17
2022-09-23T07:08:43.386Z,2.17
2022-09-23T07:11:12.527Z,1.92
2022-09-23T07:13:44.418Z,1.58
2022-09-23T07:16:11.969Z,1.45
2022-09-23T07:18:39.631Z,1.83
2022-09-23T07:21:07.840Z,1.77
2022-09-23T07:23:37.905Z,2.33
2022-09-23T07:26:08.198Z,1.90
2022-09-23T07:28:38.699Z,2.00
2022-09-23T07:31:13.985Z,2.00
2022-09-23T07:33:44.402Z,1.40
2022-09-23T07:36:13.788Z,2.03
2022-09-23T07:38:45.260Z,1.95
2022-09-23T07:41:18.081Z,1.83
2022-09-23T07:43:49.100Z,2.20
2022-09-23T07:46:17.591Z,1.58
2022-09-23T07:48:46.034Z,1.92
2022-09-23T07:51:17.888Z,2.35
2022-09-23T07:53:48.365Z,2.35
2022-09-23T07:56:15.957Z,2.22
2022-09-23T07:58:43.243Z,2.33
2022-09-23T08:01:10.643Z,2.58
2022-09-23T08:03:38.627Z,2.05
2022-09-23T08:06:10.613Z,2.45
2022-09-23T08:08:43.780Z,2.40
2022-09-23T08:11:16.011Z,2.67
2022-09-23T08:13:43.606Z,2.50
2022-09-23T08:16:12.594Z,1.80
2022-09-23T08:18:40.024Z,1.70
2022-09-23T08:21:10.269Z,2.22
2022-09-23T08:23:37.766Z,2.28
2022-09-23T08:26:09.896Z,1.88
2022-09-23T08:28:39.048Z,1.90
2022-09-23T08:31:06.379Z,1.52
2022-09-23T08:33:36.777Z,1.60
2022-09-23T08:36:05.540Z,1.50
2022-09-23T08:38:38.111Z,1.08
2022-09-23T08:41:25.205Z,2.08
2022-09-23T08:44:02.686Z,1.10
2022-09-23T08:46:37.812Z,1.33
2022-09-23T08:49:07.338Z,1.55
2022-09-23T08:51:46.220Z,1.20
2022-09-23T08:54:14.074Z,0.98
2022-09-23T08:56:45.230Z,1.63
2022-09-23T08:59:29.249Z,2.38
2022-09-23T09:02:12.030Z,1.90
2022-09-23T09:04:44.580Z,1.70
2022-09-23T09:10:04.145Z,1.77
2022-09-23T09:12:40.985Z,1.35
2022-09-23T09:15:12.840Z,2.20
2022-09-23T09:17:59.473Z,1.88
2022-09-23T09:20:29.549Z,1.67
2022-09-23T09:23:00.122Z,1.45
2022-09-23T09:25:46.945Z,1.52
2022-09-23T09:28:40.934Z,2.00
2022-09-23T09:31:11.313Z,4.18
2022-09-23T09:33:46.640Z,3.90
2022-09-23T09:36:40.915Z,5.60
2022-09-23T09:39:11.732Z,5.65
2022-09-23T09:41:39.691Z,4.38
2022-09-23T09:44:10.274Z,5.20
2022-09-23T09:46:51.136Z,4.82
2022-09-23T09:49:49.781Z,5.50
2022-09-23T09:52:22.632Z,5.43
2022-09-23T09:54:51.057Z,5.10
2022-09-23T09:57:55.482Z,5.00
2022-09-23T10:00:22.572Z,5.82
2022-09-23T10:02:53.622Z,6.03
2022-09-23T10:05:52.263Z,5.55
2022-09-23T10:08:35.879Z,5.68
2022-09-23T10:11:18.498Z,6.05
2022-09-23T10:14:01.368Z,6.18
2022-09-23T10:16:32.500Z,7.50
2022-09-23T10:19:00.889Z,6.93
2022-09-23T10:21:35.982Z,5.45
2022-09-23T10:24:05.721Z,5.97
2022-09-23T10:26:44.124Z,5.38
2022-09-23T10:29:24.223Z,6.25
2022-09-23T10:31:58.152Z,6.28
2022-09-23T10:34:28.589Z,5.63
2022-09-23T10:37:14.554Z,6.70
2022-09-23T10:40:00.618Z,5.25
2022-09-23T10:43:20.060Z,5.90
2022-09-23T10:46:09.986Z,5.13
2022-09-23T10:48:58.277Z,5.80
2022-09-23T10:51:33.304Z,5.50
2022-09-23T10:54:24.216Z,5.13
2022-09-23T10:57:03.085Z,4.85
2022-09-23T10:59:59.611Z,4.90
2022-09-23T11:03:09.282Z,4.03
2022-09-23T11:05:55.385Z,2.38
2022-09-23T11:08:38.190Z,2.38
2022-09-23T11:11:23.132Z,1.90
2022-09-23T11:14:26.634Z,2.75
2022-09-23T11:17:21.229Z,2.10
2022-09-23T11:20:08.470Z,1.85
2022-09-23T11:22:40.813Z,2.40
2022-09-23T11:25:38.307Z,1.85
2022-09-23T11:28:39.689Z,2.35
2022-09-23T11:31:19.510Z,2.13
2022-09-23T11:33:58.371Z,2.58
2022-09-23T11:36:36.584Z,1.65
2022-09-23T11:39:13.136Z,1.75
2022-09-23T11:41:40.610Z,1.95
2022-09-23T11:44:39.590Z,1.42
2022-09-23T11:47:20.849Z,1.45
2022-09-23T11:49:53.869Z,0.80
2022-09-23T11:52:33.163Z,0.85
2022-09-23T11:55:23.002Z,0.73
2022-09-23T11:58:06.862Z,0.63
2022-09-23T12:00:39.658Z,0.30
2022-09-23T12:03:22.754Z,0.52
2022-09-23T12:06:12.621Z,0.50
2022-09-23T12:08:39.905Z,0.43
2022-09-23T12:11:36.586Z,0.45
2022-09-23T12:14:23.868Z,0.65
2022-09-23T12:17:07.204Z,0.60
2022-09-23T12:19:59.413Z,0.80
2022-09-23T12:22:54.604Z,0.40
2022-09-23T12:25:42.185Z,0.35
2022-09-23T12:28:38.787Z,0.50
2022-09-23T12:31:10.268Z,0.77
2022-09-23T12:33:38.774Z,0.30
2022-09-23T12:36:06.666Z,0.50
2022-09-23T12:38:47.835Z,0.60
2022-09-23T12:41:37.652Z,0.30
2022-09-23T12:44:12.165Z,0.73
2022-09-23T12:46:40.437Z,0.57
2022-09-23T12:49:21.953Z,0.50
2022-09-23T12:52:11.909Z,0.73
2022-09-23T12:54:39.771Z,0.52
2022-09-23T12:57:11.104Z,0.40
2022-09-23T13:00:00.194Z,0.60
2022-09-23T13:02:39.211Z,0.70
2022-09-23T13:05:36.471Z,0.60
2022-09-23T13:08:09.646Z,0.50
2022-09-23T13:10:52.772Z,0.30
2022-09-23T13:13:24.605Z,0.40
2022-09-23T13:15:51.884Z,0.30
2022-09-23T13:18:18.892Z,0.40
2022-09-23T13:20:54.187Z,0.50
2022-09-23T13:23:31.624Z,0.50
2022-09-23T13:26:00.732Z,0.20
2022-09-23T13:28:53.728Z,0.40
2022-09-23T13:31:21.303Z,0.22
2022-09-23T13:34:02.567Z,0.20
2022-09-23T13:36:29.675Z,0.10
2022-09-23T13:39:25.968Z,0.20
2022-09-23T13:41:53.892Z,0.00
2022-09-23T13:44:21.996Z,0.20
2022-09-23T13:46:59.657Z,0.08
2022-09-23T13:49:32.933Z,0.10
2022-09-23T13:52:01.213Z,0.10
2022-09-23T13:54:33.421Z,0.10
2022-09-23T13:57:01.136Z,0.30
2022-09-23T13:59:37.613Z,0.10
2022-09-23T14:02:17.135Z,0.20
2022-09-23T14:04:44.675Z,0.22
2022-09-23T14:07:13.270Z,0.13
2022-09-23T14:09:49.472Z,0.30
2022-09-23T14:12:21.998Z,0.50
2022-09-23T14:14:50.640Z,0.50
2022-09-23T14:17:20.080Z,0.30
2022-09-23T14:19:47.356Z,0.40
2022-09-23T14:22:25.597Z,0.60
2022-09-23T14:24:52.977Z,0.75
2022-09-23T14:27:33.260Z,0.75
2022-09-23T14:30:01.472Z,0.68
2022-09-23T14:32:29.701Z,0.85
2022-09-23T14:34:59.518Z,0.82
2022-09-23T14:37:49.155Z,0.70
2022-09-23T14:40:28.050Z,0.93
2022-09-23T14:43:26.284Z,0.73
2022-09-23T14:45:55.964Z,0.80
2022-09-23T14:48:33.392Z,0.63
2022-09-23T14:51:02.515Z,0.90
2022-09-23T14:53:42.574Z,1.30
2022-09-23T14:56:17.817Z,1.05
2022-09-23T14:58:55.992Z,1.10
2022-09-23T15:01:32.683Z,0.70
2022-09-23T15:04:08.209Z,1.10
2022-09-23T15:06:36.810Z,0.75
2022-09-23T15:09:05.018Z,0.95
2022-09-23T15:11:32.297Z,1.10
2022-09-23T15:14:14.063Z,1.42
2022-09-23T15:16:47.346Z,1.20
2022-09-23T15:19:18.487Z,1.10
2022-09-23T15:21:45.873Z,1.48
2022-09-23T15:24:37.347Z,1.30
2022-09-23T15:27:11.002Z,1.27
2022-09-23T15:29:38.028Z,1.00
2022-09-23T15:32:07.973Z,1.35
2022-09-23T15:34:35.252Z,1.67
2022-09-23T15:37:02.452Z,1.52
2022-09-23T15:39:35.963Z,1.38
2022-09-23T15:42:03.702Z,1.80
2022-09-23T15:44:30.733Z,1.85
2022-09-23T15:47:01.111Z,1.17
2022-09-23T15:49:39.115Z,0.93
2022-09-23T15:52:09.700Z,1.42
2022-09-23T15:54:37.880Z,1.20
2022-09-23T15:57:05.064Z,1.70
2022-09-23T15:59:32.795Z,1.08
2022-09-23T16:02:03.485Z,1.45
2022-09-23T16:04:31.756Z,1.38
2022-09-23T16:06:59.005Z,1.42
2022-09-23T16:09:30.689Z,1.25
2022-09-23T16:11:57.721Z,0.95
2022-09-23T16:14:24.895Z,0.77
2022-09-23T16:16:52.912Z,0.80
2022-09-23T16:19:20.909Z,1.05
2022-09-23T16:21:48.099Z,1.92
2022-09-23T16:24:17.771Z,0.80
2022-09-23T16:26:46.542Z,1.35
2022-09-23T16:29:13.792Z,1.17
2022-09-23T16:31:41.459Z,0.50
2022-09-23T16:34:08.817Z,0.75
2022-09-23T16:36:41.190Z,0.68
2022-09-23T16:39:10.745Z,0.73
2022-09-23T16:41:38.056Z,0.47
2022-09-23T16:44:07.451Z,0.75
2022-09-23T16:46:34.700Z,0.80
2022-09-23T16:49:01.868Z,0.70
2022-09-23T16:51:30.618Z,0.60
2022-09-23T16:53:58.864Z,0.50
2022-09-23T16:56:28.842Z,0.75
2022-09-23T16:58:56.456Z,0.77
2022-09-23T17:01:46.316Z,0.70
2022-09-23T17:04:14.213Z,0.60
2022-09-23T17:06:50.599Z,0.50
2022-09-23T17:09:19.360Z,0.20
2022-09-23T17:11:48.475Z,0.20
2022-09-23T17:14:16.007Z,0.30
2022-09-23T17:16:45.398Z,0.28
2022-09-23T17:19:12.671Z,0.47
2022-09-23T17:21:39.873Z,0.30
2022-09-23T17:24:07.451Z,0.32
2022-09-23T17:26:34.628Z,0.10
2022-09-23T17:29:04.166Z,0.20
2022-09-23T17:31:31.349Z,0.10
2022-09-23T17:33:58.359Z,0.10
2022-09-23T17:36:25.511Z,0.05
2022-09-23T17:38:53.756Z,0.10
2022-09-23T17:41:21.061Z,0.10
2022-09-23T17:43:53.295Z,0.10
2022-09-23T17:46:20.406Z,0.10
2022-09-23T17:48:47.663Z,0.10
2022-09-23T17:51:19.814Z,0.08
2022-09-23T17:53:47.800Z,0.00
2022-09-23T17:56:25.741Z,0.10
2022-09-23T17:58:53.540Z,0.08
2022-09-23T18:01:24.828Z,0.10
2022-09-23T18:04:01.808Z,0.10
2022-09-23T18:06:31.720Z,0.10
2022-09-23T18:09:01.584Z,0.10
2022-09-23T18:11:29.302Z,0.03
2022-09-23T18:13:59.227Z,0.20
2022-09-23T18:16:28.502Z,0.00
2022-09-23T18:18:57.110Z,0.10
2022-09-23T18:21:26.060Z,0.10
2022-09-23T18:23:53.054Z,0.00
2022-09-23T18:26:24.367Z,0.10
2022-09-23T18:28:53.641Z,0.00
2022-09-23T18:31:20.694Z,0.10
2022-09-23T18:33:54.244Z,0.00
2022-09-23T18:36:24.538Z,0.00
2022-09-23T18:38:52.768Z,0.10
2022-09-23T18:41:19.824Z,0.10
2022-09-23T18:43:48.690Z,0.60
2022-09-23T18:46:23.821Z,0.10
2022-09-23T18:49:09.734Z,0.00
2022-09-23T18:51:38.604Z,0.10
2022-09-23T18:54:06.891Z,0.10
2022-09-23T18:56:42.403Z,0.10
2022-09-23T18:59:16.731Z,0.10
2022-09-23T19:01:44.391Z,0.10
2022-09-23T19:04:24.978Z,0.10
2022-09-23T19:06:55.022Z,0.10
2022-09-23T19:09:27.451Z,0.03
2022-09-23T19:11:55.737Z,0.10
2022-09-23T19:14:23.602Z,0.00
2022-09-23T19:16:51.085Z,0.10
2022-09-23T19:19:18.627Z,0.30
2022-09-23T19:21:48.687Z,0.20
2022-09-23T19:24:20.286Z,0.10
2022-09-23T19:26:56.071Z,0.47
2022-09-23T19:29:54.000Z,0.13
2022-09-23T19:32:24.651Z,0.00
2022-09-23T19:34:57.233Z,0.00
2022-09-23T19:37:30.754Z,0.10
2022-09-23T19:40:02.078Z,0.15
2022-09-23T19:42:38.397Z,0.08
2022-09-23T19:45:06.545Z,0.20
2022-09-23T19:47:34.061Z,0.50
2022-09-23T19:50:01.448Z,0.52
2022-09-23T19:52:28.678Z,0.10
2022-09-23T19:54:58.610Z,0.10
2022-09-23T19:57:29.787Z,0.35
2022-09-23T19:59:59.252Z,0.10
2022-09-23T20:02:40.249Z,0.05
2022-09-23T20:05:10.813Z,0.25
2022-09-23T20:07:41.222Z,0.15
2022-09-23T20:10:11.623Z,0.10
2022-09-23T20:12:45.413Z,0.10
2022-09-23T20:15:15.394Z,0.08
2022-09-23T20:17:45.297Z,0.00
2022-09-23T20:20:16.327Z,0.10
2022-09-23T20:22:50.600Z,0.20
2022-09-23T20:25:20.921Z,0.05
2022-09-23T20:28:01.565Z,0.20
2022-09-23T20:30:41.405Z,0.20
2022-09-23T20:33:09.081Z,0.10
2022-09-23T20:35:36.310Z,0.10
2022-09-23T20:38:07.871Z,0.10
2022-09-23T20:40:37.260Z,0.30
2022-09-23T20:43:08.451Z,0.10
2022-09-23T20:45:36.281Z,0.10
2022-09-23T20:48:04.512Z,0.10
2022-09-23T20:50:31.800Z,0.20
2022-09-23T20:53:00.161Z,0.30
2022-09-23T20:55:29.317Z,0.15
2022-09-23T20:57:57.380Z,0.20
2022-09-23T21:00:30.303Z,0.10
2022-09-23T21:02:58.802Z,0.10
2022-09-23T21:05:29.362Z,0.00
2022-09-23T21:08:02.910Z,0.10
2022-09-23T21:10:34.513Z,0.03
2022-09-23T21:13:06.540Z,0.10
2022-09-23T21:15:37.176Z,0.10
2022-09-23T21:18:12.290Z,0.10
2022-09-23T21:20:42.331Z,0.20
2022-09-23T21:23:09.914Z,0.00
2022-09-23T21:25:45.062Z,0.30
2022-09-23T21:28:13.487Z,0.10
2022-09-23T21:30:41.698Z,0.55
2022-09-23T21:33:09.222Z,0.10
2022-09-23T21:35:36.413Z,0.10
2022-09-23T21:38:03.915Z,0.00
2022-09-23T21:40:50.242Z,0.10
2022-09-23T21:43:18.112Z,0.10
2022-09-23T21:45:47.597Z,0.10
2022-09-23T21:48:15.316Z,0.22
2022-09-23T21:50:42.916Z,0.10
2022-09-23T21:53:11.062Z,0.13
2022-09-23T21:55:40.389Z,0.00
2022-09-23T21:58:08.030Z,0.10
2022-09-23T22:00:40.818Z,0.10
2022-09-23T22:03:10.814Z,0.05
2022-09-23T22:05:45.634Z,0.10
2022-09-23T22:08:14.955Z,0.17
2022-09-23T22:10:43.436Z,0.00
2022-09-23T22:13:13.053Z,0.00
2022-09-23T22:15:42.528Z,0.00
2022-09-23T22:18:10.421Z,0.10
2022-09-23T22:20:38.325Z,0.10
2022-09-23T22:23:09.925Z,0.10
2022-09-23T22:25:42.104Z,0.10
2022-09-23T22:28:30.501Z,0.10
2022-09-23T22:31:36.208Z,0.00
2022-09-23T22:34:25.514Z,0.10
2022-09-23T22:37:03.097Z,0.00
2022-09-23T22:39:31.168Z,0.20
2022-09-23T22:42:09.918Z,0.10
2022-09-23T22:44:41.649Z,0.28
2022-09-23T22:47:18.381Z,0.00
2022-09-23T22:52:29.931Z,0.20
2022-09-23T22:55:10.528Z,0.00
2022-09-23T22:57:39.041Z,0.10
2022-09-23T23:00:10.416Z,0.05
2022-09-23T23:02:40.256Z,0.10
2022-09-23T23:05:11.878Z,0.10
2022-09-23T23:07:42.823Z,0.35
2022-09-23T23:10:12.472Z,0.20
2022-09-23T23:12:57.503Z,0.10
2022-09-23T23:15:27.173Z,0.03
2022-09-23T23:18:00.394Z,0.10
2022-09-23T23:20:33.691Z,0.10
2022-09-23T23:23:04.425Z,0.00
2022-09-23T23:25:34.404Z,0.10
2022-09-23T23:28:05.947Z,0.10
2022-09-23T23:30:40.333Z,0.10
2022-09-23T23:33:08.114Z,0.10
2022-09-23T23:35:36.285Z,0.10
2022-09-23T23:38:06.066Z,0.08
2022-09-23T23:40:38.894Z,0.00
2022-09-23T23:43:18.349Z,0.03
2022-09-23T23:46:02.989Z,0.03
2022-09-23T23:48:30.808Z,0.05
2022-09-23T23:50:59.820Z,0.10
2022-09-23T23:53:30.496Z,0.10
2022-09-23T23:56:00.993Z,0.03
2022-09-23T23:58:56.554Z,0.20
